sensor_id;sensor_type;location;lat;lon;timestamp;P1;durP1;ratioP1;P2;durP2;ratioP2
22191;SDS011;11261;52.456;10.850;2023-07-29T00:01:09;5.85;;;4.05;;
22191;SDS011;11261;52.456;10.850;2023-07-29T00:03:37;4.05;;;3.60;;
22191;SDS011;11261;52.456;10.850;2023-07-29T00:06:06;6.38;;;3.83;;
22191;SDS011;11261;52.456;10.850;2023-07-29T00:08:34;5.47;;;4.03;;
22191;SDS011;11261;52.456;10.850;2023-07-29T00:11:02;5.35;;;3.40;;
22191;SDS011;11261;52.456;10.850;2023-07-29T00:13:31;4.53;;;3.03;;
22191;SDS011;11261;52.456;10.850;2023-07-29T00:16:00;5.63;;;3.58;;
22191;SDS011;11261;52.456;10.850;2023-07-29T00:18:29;4.20;;;3.72;;
22191;SDS011;11261;52.456;10.850;2023-07-29T00:20:57;7.35;;;3.75;;
22191;SDS011;11261;52.456;10.850;2023-07-29T00:23:26;5.53;;;3.25;;
22191;SDS011;11261;52.456;10.850;2023-07-29T00:25:54;3.80;;;3.38;;
22191;SDS011;11261;52.456;10.850;2023-07-29T00:28:22;3.22;;;2.92;;
22191;SDS011;11261;52.456;10.850;2023-07-29T00:30:51;5.18;;;3.20;;
22191;SDS011;11261;52.456;10.850;2023-07-29T00:33:20;5.63;;;2.60;;
22191;SDS011;11261;52.456;10.850;2023-07-29T00:35:49;4.45;;;3.08;;
22191;SDS011;11261;52.456;10.850;2023-07-29T00:38:17;3.85;;;2.85;;
22191;SDS011;11261;52.456;10.850;2023-07-29T00:40:46;3.58;;;3.28;;
22191;SDS011;11261;52.456;10.850;2023-07-29T00:43:14;4.80;;;2.80;;
22191;SDS011;11261;52.456;10.850;2023-07-29T00:45:42;5.63;;;3.30;;
22191;SDS011;11261;52.456;10.850;2023-07-29T00:48:11;5.18;;;3.08;;
22191;SDS011;11261;52.456;10.850;2023-07-29T00:50:41;3.67;;;3.33;;
22191;SDS011;11261;52.456;10.850;2023-07-29T00:53:10;4.18;;;3.17;;
22191;SDS011;11261;52.456;10.850;2023-07-29T00:55:38;7.35;;;3.10;;
22191;SDS011;11261;52.456;10.850;2023-07-29T00:58:06;3.30;;;3.00;;
22191;SDS011;11261;52.456;10.850;2023-07-29T01:00:35;3.63;;;3.28;;
22191;SDS011;11261;52.456;10.850;2023-07-29T01:03:04;5.47;;;3.25;;
22191;SDS011;11261;52.456;10.850;2023-07-29T01:05:35;5.78;;;3.30;;
22191;SDS011;11261;52.456;10.850;2023-07-29T01:08:12;6.38;;;3.15;;
22191;SDS011;11261;52.456;10.850;2023-07-29T01:10:47;3.70;;;3.25;;
22191;SDS011;11261;52.456;10.850;2023-07-29T01:13:23;5.80;;;3.40;;
22191;SDS011;11261;52.456;10.850;2023-07-29T01:15:58;4.78;;;3.60;;
22191;SDS011;11261;52.456;10.850;2023-07-29T01:18:32;5.00;;;3.42;;
22191;SDS011;11261;52.456;10.850;2023-07-29T01:21:04;4.28;;;3.53;;
22191;SDS011;11261;52.456;10.850;2023-07-29T01:23:38;7.15;;;3.30;;
22191;SDS011;11261;52.456;10.850;2023-07-29T01:26:07;4.72;;;3.15;;
22191;SDS011;11261;52.456;10.850;2023-07-29T01:28:35;4.57;;;3.15;;
22191;SDS011;11261;52.456;10.850;2023-07-29T01:31:22;3.78;;;3.42;;
22191;SDS011;11261;52.456;10.850;2023-07-29T01:33:56;6.13;;;3.22;;
22191;SDS011;11261;52.456;10.850;2023-07-29T01:36:29;4.05;;;3.08;;
22191;SDS011;11261;52.456;10.850;2023-07-29T01:39:02;6.28;;;2.83;;
22191;SDS011;11261;52.456;10.850;2023-07-29T01:41:31;3.03;;;2.38;;
22191;SDS011;11261;52.456;10.850;2023-07-29T01:44:00;4.00;;;2.92;;
22191;SDS011;11261;52.456;10.850;2023-07-29T01:46:29;3.40;;;2.72;;
22191;SDS011;11261;52.456;10.850;2023-07-29T01:49:02;4.47;;;3.75;;
22191;SDS011;11261;52.456;10.850;2023-07-29T01:51:30;4.20;;;2.72;;
22191;SDS011;11261;52.456;10.850;2023-07-29T01:53:58;5.25;;;3.13;;
22191;SDS011;11261;52.456;10.850;2023-07-29T01:56:29;3.83;;;2.45;;
22191;SDS011;11261;52.456;10.850;2023-07-29T01:58:57;4.40;;;2.67;;
22191;SDS011;11261;52.456;10.850;2023-07-29T02:01:25;4.70;;;2.75;;
22191;SDS011;11261;52.456;10.850;2023-07-29T02:03:53;2.75;;;2.53;;
22191;SDS011;11261;52.456;10.850;2023-07-29T02:06:22;2.85;;;2.58;;
22191;SDS011;11261;52.456;10.850;2023-07-29T02:08:50;4.38;;;2.92;;
22191;SDS011;11261;52.456;10.850;2023-07-29T02:11:19;3.17;;;2.67;;
22191;SDS011;11261;52.456;10.850;2023-07-29T02:13:55;3.55;;;2.40;;
22191;SDS011;11261;52.456;10.850;2023-07-29T02:16:23;2.92;;;2.63;;
22191;SDS011;11261;52.456;10.850;2023-07-29T02:18:51;4.90;;;3.00;;
22191;SDS011;11261;52.456;10.850;2023-07-29T02:21:22;2.92;;;2.55;;
22191;SDS011;11261;52.456;10.850;2023-07-29T02:23:50;2.97;;;2.17;;
22191;SDS011;11261;52.456;10.850;2023-07-29T02:26:18;3.25;;;2.33;;
22191;SDS011;11261;52.456;10.850;2023-07-29T02:28:47;3.53;;;2.55;;
22191;SDS011;11261;52.456;10.850;2023-07-29T02:31:17;4.45;;;2.80;;
22191;SDS011;11261;52.456;10.850;2023-07-29T02:33:47;3.13;;;2.35;;
22191;SDS011;11261;52.456;10.850;2023-07-29T02:36:16;3.75;;;2.42;;
22191;SDS011;11261;52.456;10.850;2023-07-29T02:38:45;4.95;;;2.17;;
22191;SDS011;11261;52.456;10.850;2023-07-29T02:41:13;2.30;;;2.08;;
22191;SDS011;11261;52.456;10.850;2023-07-29T02:43:43;4.07;;;2.40;;
22191;SDS011;11261;52.456;10.850;2023-07-29T02:46:17;3.55;;;2.90;;
22191;SDS011;11261;52.456;10.850;2023-07-29T02:48:45;5.07;;;2.70;;
22191;SDS011;11261;52.456;10.850;2023-07-29T02:51:13;3.38;;;2.63;;
22191;SDS011;11261;52.456;10.850;2023-07-29T02:53:42;3.40;;;2.70;;
22191;SDS011;11261;52.456;10.850;2023-07-29T02:56:10;4.82;;;2.90;;
22191;SDS011;11261;52.456;10.850;2023-07-29T02:58:39;3.55;;;2.53;;
22191;SDS011;11261;52.456;10.850;2023-07-29T03:01:07;3.33;;;2.38;;
22191;SDS011;11261;52.456;10.850;2023-07-29T03:03:37;2.88;;;2.38;;
22191;SDS011;11261;52.456;10.850;2023-07-29T03:06:06;3.67;;;2.40;;
22191;SDS011;11261;52.456;10.850;2023-07-29T03:08:36;3.47;;;2.47;;
22191;SDS011;11261;52.456;10.850;2023-07-29T03:11:05;4.53;;;2.40;;
22191;SDS011;11261;52.456;10.850;2023-07-29T03:13:34;3.25;;;2.33;;
22191;SDS011;11261;52.456;10.850;2023-07-29T03:16:06;3.42;;;2.42;;
22191;SDS011;11261;52.456;10.850;2023-07-29T03:18:34;5.97;;;2.42;;
22191;SDS011;11261;52.456;10.850;2023-07-29T03:21:04;2.85;;;2.17;;
22191;SDS011;11261;52.456;10.850;2023-07-29T03:23:34;3.17;;;2.13;;
22191;SDS011;11261;52.456;10.850;2023-07-29T03:26:03;3.63;;;2.20;;
22191;SDS011;11261;52.456;10.850;2023-07-29T03:28:37;2.33;;;2.10;;
22191;SDS011;11261;52.456;10.850;2023-07-29T03:31:07;2.47;;;2.25;;
22191;SDS011;11261;52.456;10.850;2023-07-29T03:33:37;2.80;;;2.20;;
22191;SDS011;11261;52.456;10.850;2023-07-29T03:36:05;4.40;;;1.80;;
22191;SDS011;11261;52.456;10.850;2023-07-29T03:38:34;2.30;;;2.08;;
22191;SDS011;11261;52.456;10.850;2023-07-29T03:41:07;2.15;;;1.92;;
22191;SDS011;11261;52.456;10.850;2023-07-29T03:43:36;3.10;;;2.33;;
22191;SDS011;11261;52.456;10.850;2023-07-29T03:46:04;3.15;;;2.40;;
22191;SDS011;11261;52.456;10.850;2023-07-29T03:48:39;3.22;;;2.13;;
22191;SDS011;11261;52.456;10.850;2023-07-29T03:51:07;4.30;;;2.50;;
22191;SDS011;11261;52.456;10.850;2023-07-29T03:53:35;3.83;;;2.25;;
22191;SDS011;11261;52.456;10.850;2023-07-29T03:56:04;5.07;;;2.50;;
22191;SDS011;11261;52.456;10.850;2023-07-29T03:58:32;3.30;;;2.58;;
22191;SDS011;11261;52.456;10.850;2023-07-29T04:01:00;2.88;;;2.10;;
22191;SDS011;11261;52.456;10.850;2023-07-29T04:03:29;3.58;;;2.28;;
22191;SDS011;11261;52.456;10.850;2023-07-29T04:05:59;2.30;;;1.88;;
22191;SDS011;11261;52.456;10.850;2023-07-29T04:08:27;2.53;;;2.17;;
22191;SDS011;11261;52.456;10.850;2023-07-29T04:10:55;3.22;;;2.42;;
22191;SDS011;11261;52.456;10.850;2023-07-29T04:13:24;2.75;;;2.20;;
22191;SDS011;11261;52.456;10.850;2023-07-29T04:15:53;4.68;;;2.50;;
22191;SDS011;11261;52.456;10.850;2023-07-29T04:18:21;2.55;;;2.15;;
22191;SDS011;11261;52.456;10.850;2023-07-29T04:20:49;5.00;;;2.20;;
22191;SDS011;11261;52.456;10.850;2023-07-29T04:23:19;2.60;;;2.00;;
22191;SDS011;11261;52.456;10.850;2023-07-29T04:25:48;2.90;;;2.40;;
22191;SDS011;11261;52.456;10.850;2023-07-29T04:28:18;2.20;;;1.98;;
22191;SDS011;11261;52.456;10.850;2023-07-29T04:30:47;3.80;;;2.00;;
22191;SDS011;11261;52.456;10.850;2023-07-29T04:33:15;2.13;;;1.92;;
22191;SDS011;11261;52.456;10.850;2023-07-29T04:35:43;2.45;;;2.00;;
22191;SDS011;11261;52.456;10.850;2023-07-29T04:38:11;3.97;;;2.05;;
22191;SDS011;11261;52.456;10.850;2023-07-29T04:40:41;5.38;;;2.10;;
22191;SDS011;11261;52.456;10.850;2023-07-29T04:43:09;2.90;;;2.00;;
22191;SDS011;11261;52.456;10.850;2023-07-29T04:45:41;2.65;;;2.05;;
22191;SDS011;11261;52.456;10.850;2023-07-29T04:48:11;2.72;;;1.98;;
22191;SDS011;11261;52.456;10.850;2023-07-29T04:50:39;3.10;;;1.80;;
22191;SDS011;11261;52.456;10.850;2023-07-29T04:53:07;2.85;;;1.63;;
22191;SDS011;11261;52.456;10.850;2023-07-29T04:55:36;2.55;;;2.05;;
22191;SDS011;11261;52.456;10.850;2023-07-29T04:58:05;3.42;;;2.05;;
22191;SDS011;11261;52.456;10.850;2023-07-29T05:00:34;2.60;;;1.85;;
22191;SDS011;11261;52.456;10.850;2023-07-29T05:03:03;2.65;;;1.92;;
22191;SDS011;11261;52.456;10.850;2023-07-29T05:05:31;1.95;;;1.75;;
22191;SDS011;11261;52.456;10.850;2023-07-29T05:07:59;4.32;;;2.20;;
22191;SDS011;11261;52.456;10.850;2023-07-29T05:10:28;2.40;;;2.00;;
22191;SDS011;11261;52.456;10.850;2023-07-29T05:12:56;4.15;;;2.05;;
22191;SDS011;11261;52.456;10.850;2023-07-29T05:15:26;5.15;;;1.95;;
22191;SDS011;11261;52.456;10.850;2023-07-29T05:17:54;1.70;;;1.50;;
22191;SDS011;11261;52.456;10.850;2023-07-29T05:20:22;2.40;;;2.00;;
22191;SDS011;11261;52.456;10.850;2023-07-29T05:22:50;2.42;;;1.65;;
22191;SDS011;11261;52.456;10.850;2023-07-29T05:25:19;2.83;;;1.90;;
22191;SDS011;11261;52.456;10.850;2023-07-29T05:27:47;4.10;;;2.20;;
22191;SDS011;11261;52.456;10.850;2023-07-29T05:30:15;2.28;;;1.58;;
22191;SDS011;11261;52.456;10.850;2023-07-29T05:32:45;3.08;;;1.90;;
22191;SDS011;11261;52.456;10.850;2023-07-29T05:35:14;3.05;;;2.13;;
22191;SDS011;11261;52.456;10.850;2023-07-29T05:37:42;2.65;;;2.15;;
22191;SDS011;11261;52.456;10.850;2023-07-29T05:40:11;2.38;;;1.88;;
22191;SDS011;11261;52.456;10.850;2023-07-29T05:42:39;2.72;;;2.15;;
22191;SDS011;11261;52.456;10.850;2023-07-29T05:45:07;3.65;;;2.10;;
22191;SDS011;11261;52.456;10.850;2023-07-29T05:47:37;4.60;;;2.08;;
22191;SDS011;11261;52.456;10.850;2023-07-29T05:50:07;2.60;;;2.15;;
22191;SDS011;11261;52.456;10.850;2023-07-29T05:52:36;2.47;;;1.70;;
22191;SDS011;11261;52.456;10.850;2023-07-29T05:55:05;4.50;;;2.03;;
22191;SDS011;11261;52.456;10.850;2023-07-29T05:57:33;2.30;;;1.83;;
22191;SDS011;11261;52.456;10.850;2023-07-29T06:00:02;2.03;;;1.70;;
22191;SDS011;11261;52.456;10.850;2023-07-29T06:02:30;1.73;;;1.48;;
22191;SDS011;11261;52.456;10.850;2023-07-29T06:04:59;2.88;;;1.38;;
22191;SDS011;11261;52.456;10.850;2023-07-29T06:07:30;2.28;;;1.55;;
22191;SDS011;11261;52.456;10.850;2023-07-29T06:10:00;1.92;;;1.48;;
22191;SDS011;11261;52.456;10.850;2023-07-29T06:12:28;1.55;;;1.20;;
22191;SDS011;11261;52.456;10.850;2023-07-29T06:14:56;5.78;;;1.50;;
22191;SDS011;11261;52.456;10.850;2023-07-29T06:17:25;3.13;;;1.70;;
22191;SDS011;11261;52.456;10.850;2023-07-29T06:19:53;1.58;;;1.27;;
22191;SDS011;11261;52.456;10.850;2023-07-29T06:22:22;2.13;;;1.40;;
22191;SDS011;11261;52.456;10.850;2023-07-29T06:24:51;1.95;;;1.58;;
22191;SDS011;11261;52.456;10.850;2023-07-29T06:27:19;1.38;;;1.27;;
22191;SDS011;11261;52.456;10.850;2023-07-29T06:29:48;1.45;;;1.35;;
22191;SDS011;11261;52.456;10.850;2023-07-29T06:32:16;3.13;;;1.52;;
22191;SDS011;11261;52.456;10.850;2023-07-29T06:34:45;1.27;;;1.17;;
22191;SDS011;11261;52.456;10.850;2023-07-29T06:37:13;3.28;;;1.17;;
22191;SDS011;11261;52.456;10.850;2023-07-29T06:39:41;1.67;;;1.27;;
22191;SDS011;11261;52.456;10.850;2023-07-29T06:42:11;2.53;;;1.33;;
22191;SDS011;11261;52.456;10.850;2023-07-29T06:44:40;1.63;;;1.20;;
22191;SDS011;11261;52.456;10.850;2023-07-29T06:47:08;2.22;;;1.20;;
22191;SDS011;11261;52.456;10.850;2023-07-29T06:49:36;4.35;;;1.70;;
22191;SDS011;11261;52.456;10.850;2023-07-29T06:52:04;3.78;;;1.70;;
22191;SDS011;11261;52.456;10.850;2023-07-29T06:54:33;3.63;;;1.20;;
22191;SDS011;11261;52.456;10.850;2023-07-29T06:57:01;2.60;;;1.33;;
22191;SDS011;11261;52.456;10.850;2023-07-29T06:59:31;4.47;;;1.50;;
22191;SDS011;11261;52.456;10.850;2023-07-29T07:01:59;2.40;;;1.30;;
22191;SDS011;11261;52.456;10.850;2023-07-29T07:04:28;1.60;;;1.50;;
22191;SDS011;11261;52.456;10.850;2023-07-29T07:06:57;1.77;;;1.40;;
22191;SDS011;11261;52.456;10.850;2023-07-29T07:09:25;2.40;;;1.30;;
22191;SDS011;11261;52.456;10.850;2023-07-29T07:11:54;3.38;;;1.50;;
22191;SDS011;11261;52.456;10.850;2023-07-29T07:14:22;2.38;;;1.45;;
22191;SDS011;11261;52.456;10.850;2023-07-29T07:16:51;2.58;;;1.77;;
22191;SDS011;11261;52.456;10.850;2023-07-29T07:19:20;1.92;;;1.50;;
22191;SDS011;11261;52.456;10.850;2023-07-29T07:21:48;3.25;;;1.25;;
22191;SDS011;11261;52.456;10.850;2023-07-29T07:24:16;4.20;;;1.45;;
22191;SDS011;11261;52.456;10.850;2023-07-29T07:26:44;2.38;;;1.65;;
22191;SDS011;11261;52.456;10.850;2023-07-29T07:29:12;3.03;;;1.50;;
22191;SDS011;11261;52.456;10.850;2023-07-29T07:31:41;3.05;;;1.67;;
22191;SDS011;11261;52.456;10.850;2023-07-29T07:34:18;2.78;;;1.63;;
22191;SDS011;11261;52.456;10.850;2023-07-29T07:36:46;3.15;;;1.80;;
22191;SDS011;11261;52.456;10.850;2023-07-29T07:39:15;2.38;;;1.70;;
22191;SDS011;11261;52.456;10.850;2023-07-29T07:41:43;1.40;;;1.30;;
22191;SDS011;11261;52.456;10.850;2023-07-29T07:44:11;1.50;;;1.40;;
22191;SDS011;11261;52.456;10.850;2023-07-29T07:46:44;3.50;;;2.08;;
22191;SDS011;11261;52.456;10.850;2023-07-29T07:49:12;1.42;;;1.30;;
22191;SDS011;11261;52.456;10.850;2023-07-29T07:51:44;2.65;;;1.48;;
22191;SDS011;11261;52.456;10.850;2023-07-29T07:54:12;2.70;;;1.70;;
22191;SDS011;11261;52.456;10.850;2023-07-29T07:56:40;2.55;;;1.55;;
22191;SDS011;11261;52.456;10.850;2023-07-29T07:59:09;2.03;;;1.38;;
22191;SDS011;11261;52.456;10.850;2023-07-29T08:01:37;4.15;;;1.77;;
22191;SDS011;11261;52.456;10.850;2023-07-29T08:04:06;1.90;;;1.70;;
22191;SDS011;11261;52.456;10.850;2023-07-29T08:06:35;4.07;;;1.40;;
22191;SDS011;11261;52.456;10.850;2023-07-29T08:09:05;1.92;;;1.50;;
22191;SDS011;11261;52.456;10.850;2023-07-29T08:11:33;2.45;;;1.80;;
22191;SDS011;11261;52.456;10.850;2023-07-29T08:14:02;4.03;;;1.80;;
22191;SDS011;11261;52.456;10.850;2023-07-29T08:16:30;2.45;;;1.70;;
22191;SDS011;11261;52.456;10.850;2023-07-29T08:18:58;2.42;;;1.77;;
22191;SDS011;11261;52.456;10.850;2023-07-29T08:21:26;1.63;;;1.42;;
22191;SDS011;11261;52.456;10.850;2023-07-29T08:23:55;1.58;;;1.48;;
22191;SDS011;11261;52.456;10.850;2023-07-29T08:26:25;1.92;;;1.80;;
22191;SDS011;11261;52.456;10.850;2023-07-29T08:28:53;1.92;;;1.25;;
22191;SDS011;11261;52.456;10.850;2023-07-29T08:31:21;1.52;;;1.42;;
22191;SDS011;11261;52.456;10.850;2023-07-29T08:33:49;2.88;;;1.35;;
22191;SDS011;11261;52.456;10.850;2023-07-29T08:36:17;2.38;;;1.35;;
22191;SDS011;11261;52.456;10.850;2023-07-29T08:38:46;2.17;;;1.42;;
22191;SDS011;11261;52.456;10.850;2023-07-29T08:41:14;1.92;;;1.30;;
22191;SDS011;11261;52.456;10.850;2023-07-29T08:43:50;2.00;;;1.40;;
22191;SDS011;11261;52.456;10.850;2023-07-29T08:46:23;1.48;;;1.13;;
22191;SDS011;11261;52.456;10.850;2023-07-29T08:48:52;1.75;;;1.17;;
22191;SDS011;11261;52.456;10.850;2023-07-29T08:51:21;2.50;;;1.60;;
22191;SDS011;11261;52.456;10.850;2023-07-29T08:53:50;2.35;;;1.33;;
22191;SDS011;11261;52.456;10.850;2023-07-29T08:56:19;2.53;;;1.13;;
22191;SDS011;11261;52.456;10.850;2023-07-29T08:58:48;1.15;;;1.00;;
22191;SDS011;11261;52.456;10.850;2023-07-29T09:01:17;2.15;;;1.10;;
22191;SDS011;11261;52.456;10.850;2023-07-29T09:03:45;1.80;;;1.20;;
22191;SDS011;11261;52.456;10.850;2023-07-29T09:06:13;1.27;;;1.17;;
22191;SDS011;11261;52.456;10.850;2023-07-29T09:08:43;1.35;;;1.00;;
22191;SDS011;11261;52.456;10.850;2023-07-29T09:11:13;1.90;;;1.20;;
22191;SDS011;11261;52.456;10.850;2023-07-29T09:13:43;1.75;;;1.10;;
22191;SDS011;11261;52.456;10.850;2023-07-29T09:16:13;1.10;;;1.00;;
22191;SDS011;11261;52.456;10.850;2023-07-29T09:18:42;0.95;;;0.85;;
22191;SDS011;11261;52.456;10.850;2023-07-29T09:21:10;2.33;;;1.10;;
22191;SDS011;11261;52.456;10.850;2023-07-29T09:23:39;1.20;;;1.10;;
22191;SDS011;11261;52.456;10.850;2023-07-29T09:26:09;3.58;;;1.33;;
22191;SDS011;11261;52.456;10.850;2023-07-29T09:28:39;1.73;;;1.10;;
22191;SDS011;11261;52.456;10.850;2023-07-29T09:31:10;3.05;;;0.88;;
22191;SDS011;11261;52.456;10.850;2023-07-29T09:33:49;1.40;;;1.10;;
22191;SDS011;11261;52.456;10.850;2023-07-29T09:36:17;1.13;;;0.90;;
22191;SDS011;11261;52.456;10.850;2023-07-29T09:38:50;1.08;;;0.98;;
22191;SDS011;11261;52.456;10.850;2023-07-29T09:41:21;2.80;;;1.23;;
22191;SDS011;11261;52.456;10.850;2023-07-29T09:43:54;1.95;;;1.00;;
22191;SDS011;11261;52.456;10.850;2023-07-29T09:46:25;1.17;;;1.08;;
22191;SDS011;11261;52.456;10.850;2023-07-29T09:49:01;2.13;;;1.10;;
22191;SDS011;11261;52.456;10.850;2023-07-29T09:51:30;1.33;;;1.02;;
22191;SDS011;11261;52.456;10.850;2023-07-29T09:53:58;0.95;;;0.93;;
22191;SDS011;11261;52.456;10.850;2023-07-29T09:56:30;2.13;;;1.13;;
22191;SDS011;11261;52.456;10.850;2023-07-29T09:59:00;1.10;;;1.02;;
22191;SDS011;11261;52.456;10.850;2023-07-29T10:01:32;2.30;;;1.10;;
22191;SDS011;11261;52.456;10.850;2023-07-29T10:04:03;2.53;;;1.10;;
22191;SDS011;11261;52.456;10.850;2023-07-29T10:06:36;1.83;;;1.17;;
22191;SDS011;11261;52.456;10.850;2023-07-29T10:09:06;1.27;;;1.00;;
22191;SDS011;11261;52.456;10.850;2023-07-29T10:11:35;2.38;;;1.30;;
22191;SDS011;11261;52.456;10.850;2023-07-29T10:14:04;1.00;;;1.00;;
22191;SDS011;11261;52.456;10.850;2023-07-29T10:16:36;1.00;;;0.90;;
22191;SDS011;11261;52.456;10.850;2023-07-29T10:19:05;0.90;;;0.90;;
22191;SDS011;11261;52.456;10.850;2023-07-29T10:21:35;1.92;;;1.10;;
22191;SDS011;11261;52.456;10.850;2023-07-29T10:24:06;1.67;;;1.00;;
22191;SDS011;11261;52.456;10.850;2023-07-29T10:26:42;3.38;;;1.17;;
22191;SDS011;11261;52.456;10.850;2023-07-29T10:29:14;2.58;;;1.63;;
22191;SDS011;11261;52.456;10.850;2023-07-29T10:31:47;2.80;;;2.00;;
22191;SDS011;11261;52.456;10.850;2023-07-29T10:34:19;1.35;;;1.05;;
22191;SDS011;11261;52.456;10.850;2023-07-29T10:36:49;5.50;;;2.28;;
22191;SDS011;11261;52.456;10.850;2023-07-29T10:39:18;3.75;;;2.70;;
22191;SDS011;11261;52.456;10.850;2023-07-29T10:41:57;3.47;;;1.90;;
22191;SDS011;11261;52.456;10.850;2023-07-29T10:47:24;2.75;;;1.63;;
22191;SDS011;11261;52.456;10.850;2023-07-29T10:49:54;2.53;;;1.67;;
22191;SDS011;11261;52.456;10.850;2023-07-29T10:52:30;2.10;;;1.38;;
22191;SDS011;11261;52.456;10.850;2023-07-29T10:55:05;3.58;;;2.10;;
22191;SDS011;11261;52.456;10.850;2023-07-29T10:57:52;1.98;;;1.63;;
22191;SDS011;11261;52.456;10.850;2023-07-29T11:00:32;3.25;;;1.35;;
22191;SDS011;11261;52.456;10.850;2023-07-29T11:03:02;4.85;;;1.92;;
22191;SDS011;11261;52.456;10.850;2023-07-29T11:05:42;3.13;;;2.03;;
22191;SDS011;11261;52.456;10.850;2023-07-29T11:08:18;3.17;;;1.60;;
22191;SDS011;11261;52.456;10.850;2023-07-29T11:10:57;1.95;;;1.40;;
22191;SDS011;11261;52.456;10.850;2023-07-29T11:13:27;2.22;;;1.42;;
22191;SDS011;11261;52.456;10.850;2023-07-29T11:15:55;2.20;;;1.38;;
22191;SDS011;11261;52.456;10.850;2023-07-29T11:18:29;3.03;;;1.58;;
22191;SDS011;11261;52.456;10.850;2023-07-29T11:21:00;2.92;;;1.27;;
22191;SDS011;11261;52.456;10.850;2023-07-29T11:23:30;1.90;;;1.48;;
22191;SDS011;11261;52.456;10.850;2023-07-29T11:26:00;1.60;;;1.50;;
22191;SDS011;11261;52.456;10.850;2023-07-29T11:28:30;2.20;;;1.30;;
22191;SDS011;11261;52.456;10.850;2023-07-29T11:30:58;3.97;;;1.52;;
22191;SDS011;11261;52.456;10.850;2023-07-29T11:33:27;2.55;;;1.80;;
22191;SDS011;11261;52.456;10.850;2023-07-29T11:35:56;2.88;;;1.80;;
22191;SDS011;11261;52.456;10.850;2023-07-29T11:38:25;2.55;;;1.50;;
22191;SDS011;11261;52.456;10.850;2023-07-29T11:40:58;1.77;;;1.67;;
22191;SDS011;11261;52.456;10.850;2023-07-29T11:43:27;2.25;;;1.70;;
22191;SDS011;11261;52.456;10.850;2023-07-29T11:45:56;2.97;;;2.22;;
22191;SDS011;11261;52.456;10.850;2023-07-29T11:48:27;2.38;;;2.03;;
22191;SDS011;11261;52.456;10.850;2023-07-29T11:50:59;2.38;;;2.17;;
22191;SDS011;11261;52.456;10.850;2023-07-29T11:53:30;2.50;;;2.30;;
22191;SDS011;11261;52.456;10.850;2023-07-29T11:55:58;2.20;;;2.00;;
22191;SDS011;11261;52.456;10.850;2023-07-29T11:58:27;2.33;;;2.10;;
22191;SDS011;11261;52.456;10.850;2023-07-29T12:00:55;1.75;;;1.65;;
22191;SDS011;11261;52.456;10.850;2023-07-29T12:03:24;3.38;;;2.50;;
22191;SDS011;11261;52.456;10.850;2023-07-29T12:05:53;1.95;;;1.80;;
22191;SDS011;11261;52.456;10.850;2023-07-29T12:08:23;3.78;;;2.50;;
22191;SDS011;11261;52.456;10.850;2023-07-29T12:10:51;2.47;;;2.28;;
22191;SDS011;11261;52.456;10.850;2023-07-29T12:13:23;2.80;;;2.53;;
22191;SDS011;11261;52.456;10.850;2023-07-29T12:15:51;5.05;;;3.05;;
22191;SDS011;11261;52.456;10.850;2023-07-29T12:18:21;4.15;;;3.47;;
22191;SDS011;11261;52.456;10.850;2023-07-29T12:20:57;4.38;;;3.80;;
22191;SDS011;11261;52.456;10.850;2023-07-29T12:23:28;4.97;;;4.20;;
22191;SDS011;11261;52.456;10.850;2023-07-29T12:25:57;5.25;;;4.50;;
22191;SDS011;11261;52.456;10.850;2023-07-29T12:28:26;5.65;;;4.47;;
22191;SDS011;11261;52.456;10.850;2023-07-29T12:30:55;7.65;;;4.72;;
22191;SDS011;11261;52.456;10.850;2023-07-29T12:33:29;4.75;;;4.05;;
22191;SDS011;11261;52.456;10.850;2023-07-29T12:35:58;5.65;;;4.68;;
22191;SDS011;11261;52.456;10.850;2023-07-29T12:38:27;6.15;;;4.50;;
22191;SDS011;11261;52.456;10.850;2023-07-29T12:40:56;8.52;;;5.38;;
22191;SDS011;11261;52.456;10.850;2023-07-29T12:43:24;5.22;;;4.72;;
22191;SDS011;11261;52.456;10.850;2023-07-29T12:45:53;6.47;;;4.90;;
22191;SDS011;11261;52.456;10.850;2023-07-29T12:48:22;5.88;;;5.28;;
22191;SDS011;11261;52.456;10.850;2023-07-29T12:50:50;6.03;;;5.38;;
22191;SDS011;11261;52.456;10.850;2023-07-29T12:53:19;5.82;;;5.20;;
22191;SDS011;11261;52.456;10.850;2023-07-29T12:55:49;6.18;;;5.20;;
22191;SDS011;11261;52.456;10.850;2023-07-29T12:58:17;6.90;;;5.75;;
22191;SDS011;11261;52.456;10.850;2023-07-29T13:00:46;6.55;;;5.10;;
22191;SDS011;11261;52.456;10.850;2023-07-29T13:03:14;7.68;;;5.45;;
22191;SDS011;11261;52.456;10.850;2023-07-29T13:05:42;9.65;;;5.45;;
22191;SDS011;11261;52.456;10.850;2023-07-29T13:08:11;8.02;;;6.05;;
22191;SDS011;11261;52.456;10.850;2023-07-29T13:10:39;8.15;;;5.95;;
22191;SDS011;11261;52.456;10.850;2023-07-29T13:13:09;8.80;;;6.32;;
22191;SDS011;11261;52.456;10.850;2023-07-29T13:15:37;7.38;;;5.30;;
22191;SDS011;11261;52.456;10.850;2023-07-29T13:18:05;5.60;;;5.03;;
22191;SDS011;11261;52.456;10.850;2023-07-29T13:20:33;5.40;;;4.90;;
22191;SDS011;11261;52.456;10.850;2023-07-29T13:23:04;4.63;;;4.07;;
22191;SDS011;11261;52.456;10.850;2023-07-29T13:25:32;6.55;;;4.05;;
22191;SDS011;11261;52.456;10.850;2023-07-29T13:28:00;4.25;;;3.67;;
22191;SDS011;11261;52.456;10.850;2023-07-29T13:30:30;4.78;;;4.28;;
22191;SDS011;11261;52.456;10.850;2023-07-29T13:32:58;4.57;;;3.17;;
22191;SDS011;11261;52.456;10.850;2023-07-29T13:35:27;3.20;;;2.80;;
22191;SDS011;11261;52.456;10.850;2023-07-29T13:37:55;2.88;;;2.60;;
22191;SDS011;11261;52.456;10.850;2023-07-29T13:40:23;3.33;;;2.75;;
22191;SDS011;11261;52.456;10.850;2023-07-29T13:42:52;2.20;;;2.00;;
22191;SDS011;11261;52.456;10.850;2023-07-29T13:45:21;1.85;;;1.65;;
22191;SDS011;11261;52.456;10.850;2023-07-29T13:47:51;3.33;;;1.90;;
22191;SDS011;11261;52.456;10.850;2023-07-29T13:50:19;1.40;;;1.30;;
22191;SDS011;11261;52.456;10.850;2023-07-29T13:52:48;1.98;;;1.52;;
22191;SDS011;11261;52.456;10.850;2023-07-29T13:55:16;5.97;;;1.55;;
22191;SDS011;11261;52.456;10.850;2023-07-29T13:57:44;1.77;;;1.30;;
22191;SDS011;11261;52.456;10.850;2023-07-29T14:00:13;1.42;;;1.30;;
22191;SDS011;11261;52.456;10.850;2023-07-29T14:02:41;1.75;;;1.65;;
22191;SDS011;11261;52.456;10.850;2023-07-29T14:05:11;1.60;;;1.30;;
22191;SDS011;11261;52.456;10.850;2023-07-29T14:07:41;1.17;;;1.02;;
22191;SDS011;11261;52.456;10.850;2023-07-29T14:10:09;1.25;;;1.00;;
22191;SDS011;11261;52.456;10.850;2023-07-29T14:12:37;4.47;;;1.27;;
22191;SDS011;11261;52.456;10.850;2023-07-29T14:15:06;1.10;;;1.00;;
22191;SDS011;11261;52.456;10.850;2023-07-29T14:17:35;1.27;;;0.93;;
22191;SDS011;11261;52.456;10.850;2023-07-29T14:20:03;1.40;;;1.00;;
22191;SDS011;11261;52.456;10.850;2023-07-29T14:22:34;1.00;;;0.90;;
22191;SDS011;11261;52.456;10.850;2023-07-29T14:25:03;3.53;;;1.25;;
22191;SDS011;11261;52.456;10.850;2023-07-29T14:27:32;1.17;;;0.80;;
22191;SDS011;11261;52.456;10.850;2023-07-29T14:30:00;0.88;;;0.60;;
22191;SDS011;11261;52.456;10.850;2023-07-29T14:32:29;1.23;;;0.80;;
22191;SDS011;11261;52.456;10.850;2023-07-29T14:34:58;0.70;;;0.70;;
22191;SDS011;11261;52.456;10.850;2023-07-29T14:37:26;2.03;;;0.80;;
22191;SDS011;11261;52.456;10.850;2023-07-29T14:39:56;1.75;;;0.70;;
22191;SDS011;11261;52.456;10.850;2023-07-29T14:42:24;2.15;;;0.80;;
22191;SDS011;11261;52.456;10.850;2023-07-29T14:44:52;1.02;;;0.70;;
22191;SDS011;11261;52.456;10.850;2023-07-29T14:47:21;0.75;;;0.70;;
22191;SDS011;11261;52.456;10.850;2023-07-29T14:49:49;1.08;;;0.70;;